Bloomfield, Kentucky
Current Conditions -  °F | °C
As of 5:15 AM on Saturday 22 Nov 2014 (Local Time) from K6I2 Reporting Station
Few Clouds Few Clouds  
Wind Chill: 40°   Ceiling: Unl
Heat Index: 45°   Visibility: 10mi
Dew Point: 25°   Wind: 9mph
Humidity: 46%   Direction: 180°S
Pressure: 30.33"   Gusts: NA
Location:  37.91°N, 85.32°W
Report Text: K6I2 221015Z AUTO 18008KT 10SM FEW075 07/M04 A3033 RMK AO2
Loading
Personal Weather Stations






























Interactive Weather Map New forecast layout! Learn more

10-Day Weather Forecast

Advertisements
Track Severe Weather on mobile